Time;durP1;ratioP1;P1;durP2;ratioP2;P2;SDS_P1;SDS_P2;PMS_P1;PMS_P2;Temp;Humidity;BMP_temperature;BMP_pressure;BME280_temperature;BME280_humidity;BME280_pressure;Samples;Min_cycle;Max_cycle;Signal;HPM_P1;HPM_P2
2023/02/17 00:01:13;;;;;;;22.50;12.90;;;;;;;1.59;100.00;94027.63;5069539;28;20052;-70
2023/02/17 00:03:40;;;;;;;36.70;23.33;;;;;;;1.60;100.00;94028.44;5069807;28;20416;-70
2023/02/17 00:06:07;;;;;;;30.10;18.40;;;;;;;1.53;100.00;94020.56;5069192;28;20040;-70
2023/02/17 00:08:34;;;;;;;47.90;27.35;;;;;;;1.53;100.00;94019.78;5069298;28;20629;-69
2023/02/17 00:11:01;;;;;;;20.85;13.20;;;;;;;1.51;100.00;94016.56;5069584;28;20044;-70
2023/02/17 00:13:28;;;;;;;27.73;17.08;;;;;;;1.46;100.00;94017.78;5068964;28;20045;-69
2023/02/17 00:15:56;;;;;;;23.52;13.30;;;;;;;1.50;100.00;94023.38;5068561;28;20584;-69
2023/02/17 00:18:23;;;;;;;20.98;13.50;;;;;;;1.47;100.00;94018.56;5068975;28;20450;-69
2023/02/17 00:20:50;;;;;;;17.88;11.57;;;;;;;1.45;100.00;94018.69;5069183;28;20483;-69
2023/02/17 00:23:16;;;;;;;23.58;14.32;;;;;;;1.48;100.00;94019.38;5069269;28;20083;-69
2023/02/17 00:25:43;;;;;;;22.60;12.38;;;;;;;1.49;100.00;94008.31;5068796;28;20106;-69
2023/02/17 00:28:10;;;;;;;42.00;21.45;;;;;;;1.46;100.00;94014.44;5069427;28;20044;-69
2023/02/17 00:30:37;;;;;;;26.20;15.98;;;;;;;1.45;100.00;94013.63;5069090;28;20118;-69
2023/02/17 00:33:06;;;;;;;22.58;13.10;;;;;;;1.43;100.00;94012.19;5069504;28;20090;-69
2023/02/17 00:35:32;;;;;;;21.58;14.98;;;;;;;1.43;100.00;94009.66;5069085;28;20041;-69
2023/02/17 00:37:59;;;;;;;22.77;14.93;;;;;;;1.42;100.00;94016.47;5069189;28;20098;-69
2023/02/17 00:40:26;;;;;;;24.23;15.80;;;;;;;1.45;100.00;94016.16;5068840;28;20086;-69
2023/02/17 00:42:53;;;;;;;24.17;14.57;;;;;;;1.36;100.00;94017.00;5069232;28;20041;-69
2023/02/17 00:45:20;;;;;;;26.40;17.05;;;;;;;1.28;100.00;94017.66;5069332;28;20145;-69
2023/02/17 00:47:47;;;;;;;54.95;33.42;;;;;;;0.97;100.00;94012.66;5069019;28;20447;-69
2023/02/17 00:50:15;;;;;;;52.92;31.77;;;;;;;0.80;100.00;94012.38;5068766;28;20045;-69
2023/02/17 00:52:42;;;;;;;74.55;44.08;;;;;;;0.71;100.00;94017.41;5068951;28;20098;-69
2023/02/17 00:55:09;;;;;;;98.15;54.22;;;;;;;0.50;100.00;94015.75;5068917;28;20087;-69
2023/02/17 00:57:35;;;;;;;91.95;51.42;;;;;;;0.32;100.00;94016.34;5068479;28;20090;-69
2023/02/17 01:00:03;;;;;;;93.18;51.20;;;;;;;0.07;100.00;94022.59;5068887;28;20044;-69
2023/02/17 01:02:30;;;;;;;107.65;54.65;;;;;;;-0.07;100.00;94024.53;5068647;28;20067;-69
2023/02/17 01:04:56;;;;;;;93.45;49.80;;;;;;;-0.10;100.00;94026.50;5069025;28;20118;-69
2023/02/17 01:07:24;;;;;;;92.75;48.22;;;;;;;-0.04;100.00;94018.44;5068906;28;20052;-69
2023/02/17 01:09:51;;;;;;;91.20;48.33;;;;;;;-0.04;100.00;94011.63;5069096;28;20090;-69
2023/02/17 01:12:18;;;;;;;79.32;42.13;;;;;;;0.04;100.00;94008.50;5067969;28;20098;-69
2023/02/17 01:14:44;;;;;;;80.57;44.42;;;;;;;-0.02;100.00;94014.06;5069103;28;20086;-69
2023/02/17 01:17:11;;;;;;;103.28;52.17;;;;;;;-0.72;100.00;93999.38;5068343;28;20091;-68
2023/02/17 01:19:38;;;;;;;104.57;54.78;;;;;;;-0.91;100.00;94018.47;5068472;28;20642;-68
2023/02/17 01:22:05;;;;;;;95.63;52.63;;;;;;;-0.78;100.00;94018.31;5068794;28;20044;-68
2023/02/17 01:24:33;;;;;;;98.15;50.92;;;;;;;-0.83;100.00;94018.66;5068511;28;20044;-69
2023/02/17 01:26:59;;;;;;;95.47;51.95;;;;;;;-0.95;100.00;94017.09;5068698;28;20045;-69
2023/02/17 01:29:26;;;;;;;95.75;50.50;;;;;;;-1.06;100.00;94012.91;5068630;28;20052;-69
2023/02/17 01:31:53;;;;;;;96.88;52.55;;;;;;;-1.23;100.00;94012.47;5068782;28;20408;-68
2023/02/17 01:34:19;;;;;;;99.78;53.20;;;;;;;-1.44;100.00;94014.88;5068809;28;20045;-68
2023/02/17 01:36:46;;;;;;;94.85;51.97;;;;;;;-1.52;100.00;94015.47;5068199;28;20492;-69
2023/02/17 01:39:14;;;;;;;93.55;51.00;;;;;;;-1.50;100.00;94020.41;5068623;28;20057;-69
2023/02/17 01:41:43;;;;;;;86.45;47.50;;;;;;;-1.53;100.00;94016.38;5068523;28;20442;-68
2023/02/17 01:44:16;;;;;;;87.88;46.97;;;;;;;-1.50;100.00;94020.41;5068444;28;20049;-68
2023/02/17 01:46:44;;;;;;;83.32;46.40;;;;;;;-1.45;100.00;94020.84;5068586;28;20049;-68
2023/02/17 01:49:21;;;;;;;81.72;43.13;;;;;;;-1.46;100.00;94019.25;5068164;28;20052;-68
2023/02/17 01:51:51;;;;;;;82.45;42.22;;;;;;;-1.40;100.00;94015.47;5068144;28;20048;-68
2023/02/17 01:54:21;;;;;;;83.30;45.67;;;;;;;-1.29;100.00;94007.88;5068325;28;20094;-68
2023/02/17 01:56:51;;;;;;;80.43;44.10;;;;;;;-1.17;100.00;94007.88;5068107;28;20542;-69
2023/02/17 01:59:20;;;;;;;79.32;42.33;;;;;;;-1.10;100.00;94016.56;5068084;28;20048;-69
2023/02/17 02:01:49;;;;;;;80.18;44.03;;;;;;;-1.06;100.00;94007.84;5068411;28;20041;-69
2023/02/17 02:04:18;;;;;;;79.22;44.92;;;;;;;-1.21;100.00;94007.28;5070975;28;20090;-68
2023/02/17 02:06:47;;;;;;;75.53;43.58;;;;;;;-1.39;100.00;94014.56;5072122;28;20048;-68
2023/02/17 02:09:18;;;;;;;79.63;44.00;;;;;;;-1.45;100.00;94007.47;5071786;28;20045;-68
2023/02/17 02:11:49;;;;;;;74.57;43.58;;;;;;;-1.50;100.00;94013.66;5071916;28;20048;-68
2023/02/17 02:14:18;;;;;;;79.50;43.08;;;;;;;-1.81;100.00;93997.53;5071473;28;20047;-68
2023/02/17 02:16:52;;;;;;;83.50;45.47;;;;;;;-1.66;100.00;94026.59;5071985;28;20105;-68
2023/02/17 02:19:36;;;;;;;76.35;43.63;;;;;;;-1.63;100.00;94020.50;5052178;28;20049;-69
2023/02/17 02:22:30;;;;;;;81.77;46.63;;;;;;;-1.66;100.00;94021.53;5071366;28;21436;-69
2023/02/17 02:25:08;;;;;;;79.50;45.35;;;;;;;-1.70;100.00;94016.84;5070911;28;20347;-68
2023/02/17 02:27:53;;;;;;;208.15;103.85;;;;;;;-1.91;100.00;94000.72;5071266;28;20052;-68
2023/02/17 02:30:40;;;;;;;102.72;53.95;;;;;;;-1.86;100.00;94017.19;5071081;28;20454;-68
2023/02/17 02:33:16;;;;;;;100.35;50.90;;;;;;;-1.82;100.00;93995.88;5071610;28;20052;-68
2023/02/17 02:35:51;;;;;;;117.38;62.17;;;;;;;-1.70;100.00;94004.25;5046778;28;20090;-68
2023/02/17 02:38:24;;;;;;;106.22;53.35;;;;;;;-1.52;100.00;94012.16;5070677;28;20052;-69
2023/02/17 02:40:57;;;;;;;98.97;51.97;;;;;;;-1.76;100.00;94008.84;5071260;28;20114;-68
2023/02/17 02:43:25;;;;;;;98.88;55.35;;;;;;;-1.79;100.00;94010.78;5070989;28;20535;-69
2023/02/17 02:45:51;;;;;;;89.07;50.90;;;;;;;-1.94;100.00;94013.50;5071369;28;20098;-68
2023/02/17 02:48:19;;;;;;;97.50;53.22;;;;;;;-1.89;100.00;94013.97;5070532;28;20548;-68
2023/02/17 02:51:05;;;;;;;107.13;57.28;;;;;;;-1.91;100.00;94020.03;5070134;28;20177;-69
2023/02/17 02:53:51;;;;;;;100.03;56.22;;;;;;;-2.07;100.00;94013.63;5071047;28;20041;-69
2023/02/17 02:56:31;;;;;;;102.18;53.28;;;;;;;-2.02;100.00;94024.19;5070976;28;20103;-69
2023/02/17 02:59:07;;;;;;;108.22;51.72;;;;;;;-2.05;100.00;94024.38;5070913;28;20072;-69
2023/02/17 03:01:40;;;;;;;102.15;52.17;;;;;;;-2.01;100.00;94027.47;5071049;28;20044;-69
2023/02/17 03:04:17;;;;;;;100.15;52.53;;;;;;;-1.99;100.00;94020.59;5071159;28;20413;-69
2023/02/17 03:06:48;;;;;;;95.28;51.42;;;;;;;-1.93;100.00;94017.66;5070919;28;20041;-69
2023/02/17 03:09:19;;;;;;;91.25;47.30;;;;;;;-1.76;100.00;94021.44;5070293;28;20455;-69
2023/02/17 03:11:47;;;;;;;75.57;43.97;;;;;;;-1.70;100.00;94025.22;5070768;28;20134;-69
2023/02/17 03:14:16;;;;;;;187.63;90.82;;;;;;;-1.68;100.00;94022.56;5070595;28;20110;-69
2023/02/17 03:16:43;;;;;;;109.22;56.45;;;;;;;-1.61;100.00;94022.00;5070824;28;20049;-69
2023/02/17 03:19:12;;;;;;;80.07;46.28;;;;;;;-1.47;100.00;94030.25;5070123;28;20045;-69
2023/02/17 03:21:43;;;;;;;81.53;45.22;;;;;;;-1.38;100.00;94028.75;5070347;28;20045;-69
2023/02/17 03:24:10;;;;;;;76.43;43.35;;;;;;;-1.58;100.00;94000.03;5070274;28;20041;-69
2023/02/17 03:26:37;;;;;;;84.38;43.65;;;;;;;-1.42;100.00;94015.59;5070140;28;20852;-69
2023/02/17 03:29:04;;;;;;;111.88;57.10;;;;;;;-1.42;100.00;94017.31;5070457;28;20048;-69
2023/02/17 03:31:30;;;;;;;91.78;48.53;;;;;;;-1.51;100.00;94021.31;5070476;28;20752;-69
2023/02/17 03:33:57;;;;;;;90.97;49.08;;;;;;;-1.50;100.00;94026.25;5043778;28;20086;-69
2023/02/17 03:36:26;;;;;;;92.82;51.45;;;;;;;-1.44;100.00;94012.38;5070157;28;20048;-69
2023/02/17 03:38:52;;;;;;;83.75;46.90;;;;;;;-1.45;100.00;93994.88;5070092;28;20052;-69
2023/02/17 03:41:19;;;;;;;82.68;46.22;;;;;;;-1.32;100.00;94008.13;5070294;28;20102;-69
2023/02/17 03:43:46;;;;;;;81.32;43.05;;;;;;;-1.27;100.00;94010.28;5070015;28;20102;-69
2023/02/17 03:46:14;;;;;;;77.47;43.60;;;;;;;-1.25;100.00;94009.25;5056384;28;20048;-69
2023/02/17 03:48:40;;;;;;;77.53;41.97;;;;;;;-1.20;100.00;94006.41;5069797;28;20053;-69
2023/02/17 03:51:12;;;;;;;67.47;38.83;;;;;;;-1.22;100.00;93991.38;5070067;28;20091;-69
2023/02/17 03:53:40;;;;;;;80.45;40.53;;;;;;;-1.31;100.00;93993.81;5069964;28;20044;-68
2023/02/17 03:56:07;;;;;;;72.57;43.05;;;;;;;-1.32;100.00;94004.78;5069743;28;20102;-69
2023/02/17 03:58:33;;;;;;;65.95;34.88;;;;;;;-1.42;100.00;93984.53;5069566;28;20555;-69
2023/02/17 04:01:00;;;;;;;61.35;34.13;;;;;;;-1.41;100.00;94002.06;5069438;28;20121;-69
2023/02/17 04:03:27;;;;;;;97.05;49.38;;;;;;;-1.78;100.00;94007.34;5069783;28;20048;-69
2023/02/17 04:05:54;;;;;;;96.50;50.55;;;;;;;-1.75;100.00;94005.41;5069942;28;20048;-69
2023/02/17 04:08:21;;;;;;;74.07;39.70;;;;;;;-1.61;100.00;93999.31;5069533;28;20051;-69
2023/02/17 04:10:52;;;;;;;74.63;41.78;;;;;;;-1.50;100.00;93988.47;5068890;28;20045;-69
2023/02/17 04:13:19;;;;;;;198.10;92.25;;;;;;;-1.41;100.00;93984.44;5069348;28;20040;-69
2023/02/17 04:15:46;;;;;;;62.85;33.45;;;;;;;-1.39;100.00;93990.16;5069309;28;20584;-68
2023/02/17 04:18:13;;;;;;;141.75;73.57;;;;;;;-1.35;100.00;93990.72;5069594;28;20045;-69
2023/02/17 04:20:39;;;;;;;60.72;33.05;;;;;;;-1.36;100.00;93989.13;5068975;28;20057;-69
2023/02/17 04:23:06;;;;;;;58.83;31.50;;;;;;;-1.44;100.00;93967.00;5069255;28;20551;-69
2023/02/17 04:25:34;;;;;;;63.60;34.75;;;;;;;-1.29;100.00;93971.81;5068717;28;20067;-69
2023/02/17 04:28:02;;;;;;;59.97;33.85;;;;;;;-1.13;100.00;93989.06;5069445;28;20177;-69
2023/02/17 04:30:29;;;;;;;84.63;46.50;;;;;;;-1.19;100.00;93976.94;5068835;28;20052;-69
2023/02/17 04:32:56;;;;;;;58.30;33.92;;;;;;;-1.38;100.00;93958.19;5069074;28;20048;-69
2023/02/17 04:35:22;;;;;;;59.83;34.83;;;;;;;-1.42;100.00;93985.34;5069021;28;20048;-69
2023/02/17 04:37:49;;;;;;;55.78;32.03;;;;;;;-1.55;100.00;94002.31;5069336;28;20527;-68
2023/02/17 04:40:16;;;;;;;71.30;41.28;;;;;;;-1.78;100.00;93962.81;5055547;28;20041;-69
2023/02/17 04:42:43;;;;;;;60.92;37.15;;;;;;;-1.53;100.00;93998.75;5058641;28;20044;-69
2023/02/17 04:45:12;;;;;;;67.07;37.55;;;;;;;-1.53;100.00;93998.75;5069045;28;20094;-69
2023/02/17 04:47:39;;;;;;;63.03;36.15;;;;;;;-1.81;100.00;94005.06;5069033;28;20098;-69
2023/02/17 04:50:07;;;;;;;72.00;39.63;;;;;;;-2.22;100.00;93950.09;5068880;28;20048;-69
2023/02/17 04:52:34;;;;;;;60.28;34.28;;;;;;;-1.94;100.00;93990.06;5069305;28;20040;-69
2023/02/17 04:55:01;;;;;;;64.78;38.97;;;;;;;-2.00;100.00;93985.50;5068748;28;20086;-69
2023/02/17 04:57:27;;;;;;;60.70;35.17;;;;;;;-2.07;100.00;93990.97;5069240;28;20049;-68
2023/02/17 04:59:54;;;;;;;58.15;34.88;;;;;;;-2.03;100.00;93994.06;5068738;28;20052;-68
2023/02/17 05:02:24;;;;;;;79.05;44.97;;;;;;;-2.30;100.00;93995.94;5068782;28;20053;-69
2023/02/17 05:04:51;;;;;;;179.07;88.32;;;;;;;-2.25;100.00;93998.16;5043392;28;20473;-69
2023/02/17 05:07:17;;;;;;;60.08;35.38;;;;;;;-2.33;100.00;94001.22;5068626;28;20094;-68
2023/02/17 05:09:44;;;;;;;76.22;41.08;;;;;;;-2.25;100.00;94003.19;5068581;28;20090;-69
2023/02/17 05:12:11;;;;;;;84.00;47.88;;;;;;;-2.23;100.00;94001.34;5068470;28;20498;-69
2023/02/17 05:14:37;;;;;;;74.70;45.72;;;;;;;-2.15;100.00;94008.34;5068526;28;20040;-69
2023/02/17 05:17:04;;;;;;;97.68;56.60;;;;;;;-2.15;100.00;94006.66;5068922;28;20048;-69
2023/02/17 05:19:32;;;;;;;89.70;53.00;;;;;;;-2.11;100.00;94003.88;5068783;28;20501;-69
2023/02/17 05:21:59;;;;;;;100.88;58.58;;;;;;;-2.63;100.00;93979.88;5068388;28;20048;-69
2023/02/17 05:24:26;;;;;;;93.30;51.88;;;;;;;-2.41;100.00;94011.03;5068872;28;20044;-69
2023/02/17 05:26:52;;;;;;;103.15;57.30;;;;;;;-2.59;100.00;94018.19;5068230;28;20102;-69
2023/02/17 05:29:19;;;;;;;95.45;56.60;;;;;;;-2.55;100.00;94022.88;5068392;28;20528;-69
2023/02/17 05:31:46;;;;;;;93.38;53.08;;;;;;;-2.54;100.00;94018.69;5068723;28;20045;-69
2023/02/17 05:34:12;;;;;;;93.45;51.45;;;;;;;-2.65;100.00;94024.44;5068677;28;20102;-69
2023/02/17 05:36:40;;;;;;;106.75;65.55;;;;;;;-2.77;100.00;94012.75;5068244;28;20079;-69
2023/02/17 05:39:07;;;;;;;97.35;58.67;;;;;;;-2.79;100.00;94038.00;5071724;28;20057;-69
2023/02/17 05:41:34;;;;;;;107.47;60.90;;;;;;;-2.81;100.00;94027.25;5072114;28;20054;-69
2023/02/17 05:44:01;;;;;;;117.95;64.35;;;;;;;-2.90;100.00;94043.78;5072557;28;20094;-69
2023/02/17 05:46:27;;;;;;;112.47;61.90;;;;;;;-2.95;100.00;94049.13;5071950;28;20090;-68
2023/02/17 05:48:54;;;;;;;127.53;70.93;;;;;;;-2.99;100.00;94055.28;5072382;28;20157;-69
2023/02/17 05:51:21;;;;;;;119.07;65.43;;;;;;;-2.84;100.00;94055.94;5072230;28;20040;-69
2023/02/17 05:53:49;;;;;;;111.15;61.42;;;;;;;-2.81;100.00;94042.34;5072056;28;20094;-68
2023/02/17 05:56:16;;;;;;;108.60;60.20;;;;;;;-2.60;100.00;94064.38;5071703;28;20040;-68
2023/02/17 05:58:42;;;;;;;109.07;60.85;;;;;;;-2.49;100.00;94053.56;5071967;28;20501;-69
2023/02/17 06:01:09;;;;;;;98.07;55.30;;;;;;;-2.47;100.00;94032.41;5071881;28;20462;-68
2023/02/17 06:03:36;;;;;;;103.53;55.42;;;;;;;-2.15;100.00;94069.56;5072016;28;20045;-69
2023/02/17 06:06:03;;;;;;;97.78;57.90;;;;;;;-2.28;100.00;94071.34;5071504;28;20119;-68
2023/02/17 06:08:30;;;;;;;100.43;56.97;;;;;;;-2.19;100.00;94069.88;5071832;28;20049;-68
2023/02/17 06:10:58;;;;;;;94.00;52.20;;;;;;;-2.12;100.00;94075.28;5071467;28;20718;-69
2023/02/17 06:13:25;;;;;;;89.00;49.47;;;;;;;-2.06;100.00;94075.66;5071675;28;20052;-68
2023/02/17 06:15:51;;;;;;;84.07;47.10;;;;;;;-2.09;100.00;94077.59;5071282;28;20040;-68
2023/02/17 06:18:18;;;;;;;98.30;55.40;;;;;;;-2.10;100.00;94071.75;5071464;28;20048;-68
2023/02/17 06:20:45;;;;;;;103.25;57.75;;;;;;;-1.99;100.00;94082.75;5071537;28;20420;-69
2023/02/17 06:23:11;;;;;;;91.93;52.08;;;;;;;-2.12;100.00;94086.16;5071548;28;20576;-68
2023/02/17 06:25:38;;;;;;;95.68;52.35;;;;;;;-2.07;100.00;94066.50;5071408;28;20044;-69
2023/02/17 06:28:06;;;;;;;77.43;45.47;;;;;;;-1.89;100.00;94083.72;5067113;28;20098;-69
2023/02/17 06:30:33;;;;;;;85.63;48.17;;;;;;;-1.82;100.00;94087.38;5069586;28;20113;-69
2023/02/17 06:33:00;;;;;;;80.05;45.33;;;;;;;-1.78;100.00;94092.97;5070802;28;20053;-69
2023/02/17 06:35:27;;;;;;;136.85;69.13;;;;;;;-1.68;100.00;94088.06;5071055;28;20048;-69
2023/02/17 06:37:53;;;;;;;78.40;47.03;;;;;;;-1.71;100.00;94094.13;5071177;28;20052;-69
2023/02/17 06:40:20;;;;;;;77.80;45.47;;;;;;;-1.65;100.00;94093.72;5071015;28;20094;-69
2023/02/17 06:42:47;;;;;;;83.85;43.90;;;;;;;-1.73;100.00;94093.44;5071436;28;20143;-68
2023/02/17 06:45:15;;;;;;;70.60;41.92;;;;;;;-1.67;100.00;94099.78;5070771;28;20044;-69
2023/02/17 06:47:42;;;;;;;81.60;46.17;;;;;;;-1.82;100.00;94079.81;5070929;28;20502;-69
2023/02/17 06:50:10;;;;;;;82.20;43.92;;;;;;;-1.85;100.00;94079.25;5044470;28;20102;-69
2023/02/17 06:52:37;;;;;;;103.97;55.58;;;;;;;-1.65;100.00;94108.00;5070287;28;20489;-69
2023/02/17 06:55:04;;;;;;;100.15;50.53;;;;;;;-1.50;100.00;94101.03;5070935;28;20098;-69
2023/02/17 06:57:31;;;;;;;81.88;46.38;;;;;;;-1.37;100.00;94101.75;5070644;28;20464;-69
2023/02/17 06:59:57;;;;;;;80.65;45.83;;;;;;;-1.15;100.00;94092.53;5070746;28;20045;-69
2023/02/17 07:02:25;;;;;;;102.15;54.50;;;;;;;-1.02;100.00;94102.50;5070530;28;20090;-69
2023/02/17 07:04:52;;;;;;;69.35;37.47;;;;;;;-0.94;100.00;94096.88;5070721;28;20049;-69
2023/02/17 07:07:19;;;;;;;86.25;46.28;;;;;;;-0.73;100.00;94096.97;5070162;28;20079;-68
2023/02/17 07:09:45;;;;;;;88.78;48.63;;;;;;;-0.59;100.00;94100.97;5070712;28;20097;-68
2023/02/17 07:12:12;;;;;;;78.38;43.40;;;;;;;-0.67;100.00;94062.88;5070520;28;20181;-68
2023/02/17 07:14:39;;;;;;;73.90;41.72;;;;;;;-0.28;100.00;94096.03;5070095;28;20052;-69
2023/02/17 07:17:05;;;;;;;88.43;49.70;;;;;;;-0.23;100.00;94099.91;5070408;28;20048;-69
2023/02/17 07:19:34;;;;;;;205.02;109.97;;;;;;;-0.24;100.00;94106.69;5070352;28;20485;-69
2023/02/17 07:22:01;;;;;;;105.55;62.88;;;;;;;-0.28;100.00;94102.78;5069907;28;20094;-70
2023/02/17 07:24:28;;;;;;;98.05;56.47;;;;;;;-0.26;100.00;94106.00;5061584;28;20045;-69
2023/02/17 07:26:55;;;;;;;90.75;51.42;;;;;;;-0.18;100.00;94103.66;5065653;28;20045;-69
2023/02/17 07:29:21;;;;;;;77.32;43.78;;;;;;;-0.15;100.00;94105.16;5070017;28;20131;-69
2023/02/17 07:31:48;;;;;;;75.85;41.45;;;;;;;-0.02;100.00;94108.31;5069849;28;20053;-69
2023/02/17 07:34:15;;;;;;;74.78;39.13;;;;;;;0.03;100.00;94104.59;5070291;28;20102;-69
2023/02/17 07:36:43;;;;;;;73.13;41.30;;;;;;;0.24;100.00;94114.72;5069876;28;20048;-69
2023/02/17 07:39:10;;;;;;;97.28;55.38;;;;;;;0.35;100.00;94116.38;5070440;28;20057;-69
2023/02/17 07:41:36;;;;;;;85.55;45.53;;;;;;;0.40;100.00;94114.28;5056710;28;20090;-69
2023/02/17 07:44:03;;;;;;;101.57;48.03;;;;;;;0.59;100.00;94115.31;5070199;28;20044;-69
2023/02/17 07:46:30;;;;;;;77.75;41.42;;;;;;;0.62;100.00;94120.94;5069826;28;20036;-69
2023/02/17 07:48:57;;;;;;;81.97;45.35;;;;;;;0.76;100.00;94124.03;5069974;28;20093;-69
2023/02/17 07:51:24;;;;;;;95.10;52.28;;;;;;;0.80;100.00;94121.13;5069072;28;20890;-69
2023/02/17 07:53:53;;;;;;;80.40;44.33;;;;;;;0.91;100.00;94120.25;5070099;28;20048;-69
2023/02/17 07:56:21;;;;;;;71.85;40.67;;;;;;;0.80;100.00;94092.53;5069150;28;20457;-69
2023/02/17 07:58:49;;;;;;;75.22;41.20;;;;;;;1.13;100.00;94120.19;5069661;28;20086;-69
2023/02/17 08:01:18;;;;;;;76.10;42.42;;;;;;;1.26;100.00;94114.88;5068491;28;20447;-69
2023/02/17 08:03:47;;;;;;;69.25;39.95;;;;;;;1.45;100.00;94109.84;5057888;28;20501;-69
2023/02/17 08:06:16;;;;;;;71.93;39.53;;;;;;;1.70;100.00;94112.81;5067997;28;20053;-70
2023/02/17 08:14:14;;;;;;;61.55;31.05;;;;;;;2.22;100.00;94113.47;5069279;28;20056;-70
2023/02/17 08:16:41;;;;;;;63.42;32.28;;;;;;;2.43;100.00;94123.44;5069500;28;20045;-69
2023/02/17 08:19:08;;;;;;;64.10;32.65;;;;;;;2.54;100.00;94118.22;5069200;28;20052;-70
2023/02/17 08:21:35;;;;;;;61.53;31.08;;;;;;;2.52;100.00;94119.28;5068955;28;20117;-69
2023/02/17 08:24:02;;;;;;;69.32;32.40;;;;;;;2.66;100.00;94125.66;5069543;28;20040;-69
2023/02/17 08:26:30;;;;;;;59.10;32.22;;;;;;;2.64;100.00;94118.19;5069376;28;20098;-69
2023/02/17 08:28:57;;;;;;;63.38;33.75;;;;;;;2.65;100.00;94096.94;5068532;28;20505;-69
2023/02/17 08:31:26;;;;;;;70.97;33.58;;;;;;;2.98;100.00;94116.06;5069445;28;20048;-69
2023/02/17 08:33:54;;;;;;;61.30;31.05;;;;;;;3.08;100.00;94116.81;5068575;28;20444;-69
2023/02/17 08:36:21;;;;;;;73.15;34.75;;;;;;;3.26;100.00;94119.41;5069082;28;20520;-69
2023/02/17 08:38:50;;;;;;;68.63;34.63;;;;;;;3.42;100.00;94108.63;5042573;28;20546;-69
2023/02/17 08:41:18;;;;;;;72.35;36.53;;;;;;;3.86;100.00;94114.75;5068767;28;20044;-69
2023/02/17 08:43:47;;;;;;;78.50;36.92;;;;;;;4.04;100.00;94121.56;5069194;28;20041;-69
2023/02/17 08:46:14;;;;;;;75.80;36.47;;;;;;;4.43;100.00;94117.91;5068711;28;20895;-69
2023/02/17 08:48:41;;;;;;;75.57;37.47;;;;;;;4.70;100.00;94114.41;5069392;28;20094;-69
2023/02/17 08:51:08;;;;;;;99.15;46.67;;;;;;;4.97;100.00;94117.72;5068744;28;20538;-69
2023/02/17 08:53:35;;;;;;;87.82;44.13;;;;;;;5.10;100.00;94108.84;5068684;28;20052;-69
2023/02/17 08:56:02;;;;;;;91.10;43.42;;;;;;;5.20;100.00;94115.41;5068422;28;20416;-69
2023/02/17 08:58:29;;;;;;;78.53;36.88;;;;;;;5.41;100.00;94114.22;5068588;28;20123;-69
2023/02/17 09:00:57;;;;;;;83.38;38.95;;;;;;;5.58;100.00;94116.78;5068410;28;20489;-69
2023/02/17 09:03:24;;;;;;;79.50;37.42;;;;;;;5.62;95.61;94110.44;5060006;28;20049;-69
2023/02/17 09:05:54;;;;;;;83.82;40.92;;;;;;;5.77;100.00;94102.97;5064185;28;20045;-70
2023/02/17 09:08:21;;;;;;;76.78;34.53;;;;;;;5.80;94.64;94112.06;5068779;28;20045;-70
2023/02/17 09:10:47;;;;;;;112.72;48.33;;;;;;;5.86;92.66;94114.78;5068626;28;20091;-70
2023/02/17 09:13:14;;;;;;;96.55;43.83;;;;;;;5.79;98.04;94074.78;5071520;28;20052;-70
2023/02/17 09:15:41;;;;;;;91.43;42.72;;;;;;;6.18;100.00;94107.34;5073434;28;20048;-69
2023/02/17 09:18:09;;;;;;;94.80;45.42;;;;;;;6.39;97.21;94108.59;5073005;28;20114;-70
2023/02/17 09:20:36;;;;;;;101.90;47.25;;;;;;;6.62;95.65;94103.59;5072201;28;20090;-69
2023/02/17 09:23:03;;;;;;;63.20;33.53;;;;;;;6.80;89.48;94110.25;5072705;28;20093;-69
2023/02/17 09:25:30;;;;;;;66.50;33.78;;;;;;;6.96;87.29;94109.44;5072573;28;20090;-69
2023/02/17 09:27:56;;;;;;;68.97;33.08;;;;;;;6.94;88.19;94107.03;5072232;28;20048;-69
2023/02/17 09:30:23;;;;;;;83.63;38.40;;;;;;;6.94;90.04;94101.13;5072081;28;20102;-69
2023/02/17 09:32:50;;;;;;;79.97;37.90;;;;;;;7.13;88.56;94104.28;5072690;28;20048;-69
2023/02/17 09:35:19;;;;;;;58.90;32.50;;;;;;;7.21;91.87;94099.94;5072327;28;20044;-69
2023/02/17 09:37:46;;;;;;;51.30;26.38;;;;;;;7.47;89.12;94108.28;5072626;28;20048;-69
2023/02/17 09:40:19;;;;;;;58.65;28.30;;;;;;;7.67;86.86;94102.72;5072412;28;20044;-69
2023/02/17 09:42:47;;;;;;;54.78;28.88;;;;;;;7.86;86.50;94099.72;5072183;28;20489;-69
2023/02/17 09:45:22;;;;;;;59.35;31.15;;;;;;;8.01;91.20;94092.09;5071832;28;20110;-69
2023/02/17 09:47:52;;;;;;;51.90;26.75;;;;;;;8.38;88.09;94089.72;5072434;28;20508;-69
2023/02/17 09:50:26;;;;;;;52.00;28.27;;;;;;;8.51;85.95;94090.88;5072718;28;20086;-69
2023/02/17 09:52:57;;;;;;;45.92;25.00;;;;;;;8.69;88.93;94080.34;5072272;28;20130;-69
2023/02/17 09:55:28;;;;;;;42.85;24.25;;;;;;;8.98;83.86;94099.25;5071918;28;20053;-69
2023/02/17 09:57:59;;;;;;;43.13;21.50;;;;;;;9.13;78.72;94090.75;5071691;28;20048;-69
2023/02/17 10:00:31;;;;;;;39.83;20.40;;;;;;;9.27;79.59;94091.72;5071889;28;20045;-69
2023/02/17 10:03:04;;;;;;;28.58;13.98;;;;;;;9.44;72.66;94090.53;5071470;28;20044;-69
2023/02/17 10:05:38;;;;;;;27.33;13.45;;;;;;;9.38;66.95;94067.38;5071903;28;20048;-69
2023/02/17 10:08:11;;;;;;;16.25;8.90;;;;;;;9.31;68.07;94068.09;5071922;28;20101;-69
2023/02/17 10:10:43;;;;;;;10.27;5.20;;;;;;;9.31;54.95;94062.97;5071488;28;20053;-69
2023/02/17 10:13:10;;;;;;;12.65;6.07;;;;;;;9.38;52.45;94049.41;5071545;28;20048;-69
2023/02/17 10:15:42;;;;;;;13.27;6.78;;;;;;;9.52;52.46;94050.34;5071655;28;20593;-69
2023/02/17 10:18:16;;;;;;;16.38;7.57;;;;;;;9.56;57.58;94043.88;5071949;28;20106;-69
2023/02/17 10:20:49;;;;;;;13.90;6.85;;;;;;;9.63;55.38;94037.06;5071836;28;20094;-69
2023/02/17 10:23:19;;;;;;;15.82;8.05;;;;;;;9.83;56.85;94033.88;5070270;28;20049;-69
2023/02/17 10:26:08;;;;;;;25.30;9.30;;;;;;;9.92;57.39;94025.09;5071805;28;20098;-69
2023/02/17 10:28:47;;;;;;;18.45;8.00;;;;;;;10.06;49.72;94020.03;5071439;28;20454;-69
2023/02/17 10:31:24;;;;;;;21.55;9.35;;;;;;;10.05;55.13;94018.47;5071146;28;20562;-69
2023/02/17 10:33:57;;;;;;;19.02;8.20;;;;;;;10.28;60.06;94024.16;5071204;28;20052;-69
2023/02/17 10:36:39;;;;;;;19.38;7.85;;;;;;;10.49;59.65;94011.47;5071750;28;20090;-69
2023/02/17 10:39:14;;;;;;;17.40;8.50;;;;;;;10.66;60.58;94006.81;5048618;28;20074;-69
2023/02/17 10:41:43;;;;;;;14.80;7.97;;;;;;;10.68;49.75;93997.16;5071178;28;20052;-69
2023/02/17 10:44:16;;;;;;;18.95;7.78;;;;;;;10.68;51.77;94015.13;5071216;28;20048;-69
2023/02/17 10:46:44;;;;;;;644.95;268.45;;;;;;;10.89;53.26;94016.84;5070991;28;20048;-69
2023/02/17 10:49:22;;;;;;;21.35;10.02;;;;;;;10.80;47.75;94008.47;5071073;28;20090;-69
2023/02/17 10:51:50;;;;;;;16.58;7.10;;;;;;;10.70;47.82;94013.19;5070588;28;20056;-69
2023/02/17 10:54:29;;;;;;;17.52;6.65;;;;;;;10.59;48.94;94001.66;5057900;28;20057;-69
2023/02/17 10:56:58;;;;;;;17.10;7.40;;;;;;;10.44;52.17;93999.19;5047608;28;20049;-69
2023/02/17 10:59:30;;;;;;;18.90;7.28;;;;;;;10.40;50.14;93995.38;5070455;28;20094;-69
2023/02/17 11:02:00;;;;;;;16.48;6.78;;;;;;;10.48;46.80;94000.41;5070639;28;20049;-69
2023/02/17 11:04:27;;;;;;;11.25;5.10;;;;;;;10.47;46.70;93998.03;5070315;28;20079;-69
2023/02/17 11:06:59;;;;;;;8.25;4.32;;;;;;;10.49;48.60;93996.88;5070731;28;20548;-69
2023/02/17 11:09:31;;;;;;;11.13;4.75;;;;;;;10.58;54.63;93994.94;5070781;28;20044;-69
2023/02/17 11:12:00;;;;;;;8.35;4.70;;;;;;;10.59;49.48;93986.22;5070247;28;20052;-69
2023/02/17 11:14:29;;;;;;;11.57;4.70;;;;;;;10.61;49.81;93991.19;5067300;28;20052;-69
2023/02/17 11:16:59;;;;;;;9.60;4.53;;;;;;;10.54;48.83;93996.28;5068365;28;20094;-69
2023/02/17 11:19:28;;;;;;;7.65;4.20;;;;;;;10.65;47.07;93992.41;5069562;28;20101;-69
2023/02/17 11:21:58;;;;;;;9.07;5.15;;;;;;;10.60;46.55;93992.94;5070332;28;20065;-69
2023/02/17 11:24:26;;;;;;;8.85;4.20;;;;;;;10.74;45.45;93980.19;5070510;28;20048;-69
2023/02/17 11:26:58;;;;;;;9.40;4.95;;;;;;;10.88;48.02;93984.38;5070249;28;20086;-69